Time;durP1;ratioP1;P1;durP2;ratioP2;P2;SDS_P1;SDS_P2;PMS_P1;PMS_P2;Temp;Humidity;BMP_temperature;BMP_pressure;BME280_temperature;BME280_humidity;BME280_pressure;Samples;Min_cycle;Max_cycle;Signal;HPM_P1;HPM_P2
2022/07/26 00:04:06;;;;;;;4.63;0.88;;;28.40;50.30;;;;;;10403901;28;20069;-45
2022/07/26 00:09:08;;;;;;;5.55;1.00;;;28.30;50.40;;;;;;10406271;28;20502;-48
2022/07/26 00:14:10;;;;;;;4.30;1.33;;;28.30;50.30;;;;;;10398253;28;20393;-48
2022/07/26 00:19:13;;;;;;;7.03;1.30;;;28.30;50.30;;;;;;10398798;28;20092;-42
2022/07/26 00:24:15;;;;;;;3.28;1.00;;;28.30;50.20;;;;;;10401688;28;20125;-44
2022/07/26 00:29:17;;;;;;;7.28;1.27;;;28.30;50.00;;;;;;10408036;28;20538;-46
2022/07/26 00:34:20;;;;;;;6.18;1.15;;;28.30;50.00;;;;;;10407530;28;20386;-43
2022/07/26 00:39:23;;;;;;;1.10;0.63;;;28.30;49.80;;;;;;10409373;28;20547;-48
2022/07/26 00:44:25;;;;;;;10.07;2.50;;;28.20;49.80;;;;;;10407642;28;20463;-46
2022/07/26 00:49:28;;;;;;;8.05;1.30;;;28.30;49.70;;;;;;10407540;28;20116;-44
2022/07/26 00:54:30;;;;;;;1.50;0.70;;;28.20;49.80;;;;;;10410604;28;20506;-44
2022/07/26 00:59:32;;;;;;;5.60;1.15;;;28.20;49.60;;;;;;10410984;28;20446;-45
2022/07/26 01:04:35;;;;;;;4.45;1.33;;;28.20;49.60;;;;;;10396589;28;20172;-42
2022/07/26 01:09:38;;;;;;;13.68;1.65;;;28.20;49.60;;;;;;10405738;28;20124;-48
2022/07/26 01:14:43;;;;;;;2.63;0.75;;;28.20;49.50;;;;;;10405630;28;20111;-46
2022/07/26 01:19:46;;;;;;;3.15;0.80;;;28.10;49.70;;;;;;10402263;28;20486;-46
2022/07/26 01:24:49;;;;;;;5.22;1.00;;;28.10;49.50;;;;;;10394553;28;20124;-46
2022/07/26 01:29:51;;;;;;;6.88;1.58;;;28.00;49.60;;;;;;10404200;28;20065;-46
2022/07/26 01:34:53;;;;;;;1.70;0.75;;;28.00;49.50;;;;;;10401070;28;20135;-45
2022/07/26 01:39:56;;;;;;;4.38;0.95;;;28.10;49.50;;;;;;10400289;28;20461;-46
2022/07/26 01:44:58;;;;;;;7.88;1.30;;;28.10;49.40;;;;;;10387899;28;20040;-50
2022/07/26 01:50:00;;;;;;;6.93;2.05;;;28.00;49.50;;;;;;10398250;28;20077;-49
2022/07/26 01:55:04;;;;;;;1.33;0.55;;;28.00;49.50;;;;;;10401544;28;20055;-48
2022/07/26 02:00:07;;;;;;;6.00;1.40;;;27.90;49.60;;;;;;10404286;28;20125;-48
2022/07/26 02:05:10;;;;;;;11.10;1.17;;;28.00;49.50;;;;;;10399874;28;20128;-46
2022/07/26 02:10:14;;;;;;;5.35;1.05;;;27.90;49.70;;;;;;10395155;28;20194;-48
2022/07/26 02:15:16;;;;;;;4.53;1.20;;;27.90;49.70;;;;;;10391636;28;20864;-47
2022/07/26 02:20:18;;;;;;;4.63;0.90;;;27.90;49.70;;;;;;10398690;28;20144;-51
2022/07/26 02:25:22;;;;;;;6.82;1.20;;;27.80;49.80;;;;;;10399637;28;20454;-47
2022/07/26 02:30:24;;;;;;;7.85;1.23;;;27.90;49.70;;;;;;10394864;28;20227;-49
2022/07/26 02:35:26;;;;;;;5.07;0.82;;;27.80;49.70;;;;;;10396607;28;20053;-44
2022/07/26 02:40:29;;;;;;;5.38;1.15;;;27.80;49.70;;;;;;10398464;28;20132;-42
2022/07/26 02:45:31;;;;;;;2.55;0.70;;;27.80;49.60;;;;;;10401989;28;20463;-45
2022/07/26 02:50:33;;;;;;;2.53;0.90;;;27.80;49.60;;;;;;10403851;28;20042;-45
2022/07/26 02:55:36;;;;;;;5.93;1.05;;;27.70;49.80;;;;;;10393909;28;20151;-45
2022/07/26 03:00:38;;;;;;;3.22;0.93;;;27.70;50.00;;;;;;10400501;28;20045;-46
2022/07/26 03:05:40;;;;;;;1.67;0.63;;;27.70;49.80;;;;;;10402622;28;20075;-45
2022/07/26 03:10:43;;;;;;;7.00;1.02;;;27.70;50.00;;;;;;10408790;28;20133;-46
2022/07/26 03:15:45;;;;;;;2.92;0.60;;;27.70;49.90;;;;;;10396558;28;20103;-48
2022/07/26 03:20:47;;;;;;;3.22;0.90;;;27.60;49.80;;;;;;10401435;28;20423;-47
2022/07/26 03:25:50;;;;;;;4.47;0.98;;;27.60;49.70;;;;;;10377582;28;20132;-46
2022/07/26 03:30:52;;;;;;;7.43;1.17;;;27.60;50.00;;;;;;10403396;28;20041;-45
2022/07/26 03:35:54;;;;;;;1.60;0.70;;;27.50;50.10;;;;;;10388015;28;20045;-43
2022/07/26 03:40:57;;;;;;;1.95;0.77;;;27.60;50.00;;;;;;10397261;28;20144;-46
2022/07/26 03:45:59;;;;;;;8.80;1.45;;;27.50;49.80;;;;;;10395935;28;20041;-43
2022/07/26 03:51:01;;;;;;;3.05;0.60;;;27.50;50.00;;;;;;10390496;28;20077;-45
2022/07/26 04:01:24;;;;;;;9.05;2.08;;;27.50;49.60;;;;;;10409109;28;20073;-45
2022/07/26 04:06:26;;;;;;;1.83;0.65;;;27.50;49.80;;;;;;10404749;28;20073;-47
2022/07/26 04:11:29;;;;;;;8.30;1.33;;;27.50;49.80;;;;;;10397045;28;20128;-48
2022/07/26 04:16:31;;;;;;;3.80;1.13;;;27.50;49.80;;;;;;10404615;28;20041;-47
2022/07/26 04:21:33;;;;;;;1.60;0.45;;;27.40;49.80;;;;;;10407921;28;20049;-49
2022/07/26 04:26:36;;;;;;;2.17;0.63;;;27.40;50.00;;;;;;10397432;28;20069;-44
2022/07/26 04:31:38;;;;;;;4.35;0.73;;;27.40;49.90;;;;;;10401208;28;20099;-46
2022/07/26 04:36:39;;;;;;;3.63;0.80;;;27.40;50.00;;;;;;10407758;28;20087;-46
2022/07/26 04:41:43;;;;;;;1.55;0.47;;;27.40;50.10;;;;;;10408469;28;20068;-44
2022/07/26 04:46:44;;;;;;;1.48;0.57;;;27.40;50.30;;;;;;10392771;28;20568;-44
2022/07/26 04:51:46;;;;;;;2.13;0.47;;;27.30;50.60;;;;;;10399164;28;20396;-44
2022/07/26 04:56:49;;;;;;;0.95;0.35;;;27.30;50.40;;;;;;10405323;28;20100;-47
2022/07/26 05:01:51;;;;;;;1.48;0.57;;;27.30;50.40;;;;;;10393137;28;20134;-44
2022/07/26 05:06:53;;;;;;;0.88;0.38;;;27.30;50.40;;;;;;10404448;28;20069;-48
2022/07/26 05:11:56;;;;;;;0.85;0.30;;;27.30;50.20;;;;;;10393385;28;20116;-45
2022/07/26 05:16:59;;;;;;;0.77;0.30;;;27.30;50.00;;;;;;10395056;28;20103;-45
2022/07/26 05:22:01;;;;;;;1.55;0.40;;;27.30;49.90;;;;;;10407435;28;20509;-44
2022/07/26 05:27:04;;;;;;;2.63;0.80;;;27.20;50.00;;;;;;10408106;28;20401;-49
2022/07/26 05:32:07;;;;;;;4.68;2.50;;;27.20;49.90;;;;;;10408550;28;20137;-46
2022/07/26 05:37:09;;;;;;;8.10;3.80;;;27.20;49.90;;;;;;10395521;28;20524;-49
2022/07/26 05:42:12;;;;;;;9.60;5.95;;;27.20;49.70;;;;;;10414219;28;20053;-46
2022/07/26 05:47:14;;;;;;;12.35;7.20;;;27.20;49.80;;;;;;10407152;28;20068;-45
2022/07/26 05:52:16;;;;;;;14.15;8.20;;;27.20;49.70;;;;;;10394726;28;20049;-45
2022/07/26 05:57:20;;;;;;;12.63;7.30;;;27.10;49.60;;;;;;10395273;28;20525;-48
2022/07/26 06:02:21;;;;;;;9.70;5.60;;;27.10;49.40;;;;;;10394073;28;20049;-49
2022/07/26 06:07:23;;;;;;;6.22;3.45;;;27.10;49.70;;;;;;10380549;28;20166;-47
2022/07/26 06:12:26;;;;;;;7.55;2.40;;;27.10;50.20;;;;;;10383060;28;20046;-44
2022/07/26 06:17:28;;;;;;;3.97;1.48;;;27.10;50.50;;;;;;10378436;28;20141;-49
2022/07/26 06:22:30;;;;;;;6.70;1.23;;;27.20;51.20;;;;;;10395855;28;20041;-45
2022/07/26 06:27:33;;;;;;;3.20;0.90;;;27.10;51.40;;;;;;10388924;28;20034;-44
2022/07/26 06:32:35;;;;;;;2.40;0.85;;;27.10;51.40;;;;;;10390206;28;20057;-43
2022/07/26 06:37:38;;;;;;;2.88;0.95;;;27.10;51.60;;;;;;10385519;28;20044;-46
2022/07/26 06:42:41;;;;;;;2.80;0.73;;;27.10;51.70;;;;;;10389584;28;20502;-44
2022/07/26 06:47:43;;;;;;;2.88;0.98;;;27.10;51.80;;;;;;10398181;28;20037;-49
2022/07/26 06:52:45;;;;;;;4.45;0.70;;;27.10;51.80;;;;;;10402426;28;20045;-43
2022/07/26 06:57:48;;;;;;;2.63;0.93;;;27.10;51.90;;;;;;10375033;28;20336;-44
2022/07/26 07:02:50;;;;;;;5.32;1.15;;;27.10;51.90;;;;;;10377386;28;20156;-48
2022/07/26 07:07:51;;;;;;;1.58;0.75;;;27.10;52.00;;;;;;10377025;28;20042;-42
2022/07/26 07:12:54;;;;;;;3.35;0.65;;;27.10;52.00;;;;;;10392849;28;20138;-46
2022/07/26 07:17:56;;;;;;;3.72;0.63;;;27.10;51.90;;;;;;10398034;28;20477;-47
2022/07/26 07:22:58;;;;;;;2.95;0.70;;;27.10;51.90;;;;;;10399907;28;20638;-47
2022/07/26 07:28:01;;;;;;;2.63;0.50;;;27.10;51.90;;;;;;10405045;28;20481;-47
2022/07/26 07:33:03;;;;;;;3.60;0.63;;;27.10;52.00;;;;;;10405319;28;20509;-42
2022/07/26 07:38:05;;;;;;;4.22;0.75;;;27.20;52.60;;;;;;10398523;28;20449;-46
2022/07/26 07:43:08;;;;;;;3.63;0.52;;;27.20;51.70;;;;;;10410418;28;20071;-42
2022/07/26 07:48:10;;;;;;;1.98;0.52;;;27.40;51.30;;;;;;10398681;28;20124;-43
2022/07/26 07:53:12;;;;;;;2.88;0.40;;;27.50;50.70;;;;;;10396123;28;20108;-45
2022/07/26 07:58:15;;;;;;;2.92;0.52;;;27.50;50.60;;;;;;10404156;28;20099;-44
2022/07/26 08:03:17;;;;;;;4.00;0.70;;;27.60;50.20;;;;;;10395230;28;20048;-46
2022/07/26 08:08:19;;;;;;;1.48;0.40;;;27.60;50.00;;;;;;10401588;28;20415;-42
2022/07/26 08:13:23;;;;;;;1.95;0.40;;;27.50;50.70;;;;;;10410026;28;20049;-45
2022/07/26 08:18:25;;;;;;;0.93;0.40;;;27.60;50.00;;;;;;10404799;28;20114;-42
2022/07/26 08:23:27;;;;;;;3.38;0.40;;;27.50;49.90;;;;;;10404884;28;20045;-44
2022/07/26 08:28:30;;;;;;;3.15;0.40;;;27.50;50.00;;;;;;10401347;28;20045;-45
2022/07/26 08:33:32;;;;;;;5.82;0.63;;;27.40;49.90;;;;;;10399224;28;20045;-45
2022/07/26 08:38:34;;;;;;;1.92;0.30;;;27.30;49.80;;;;;;10404330;28;20439;-46
2022/07/26 08:43:37;;;;;;;2.30;0.40;;;27.30;49.70;;;;;;10402673;28;20788;-46
2022/07/26 08:48:39;;;;;;;2.50;0.70;;;27.30;49.80;;;;;;10394721;28;20431;-44
2022/07/26 08:53:40;;;;;;;1.75;0.50;;;27.30;49.80;;;;;;10400349;28;20144;-44
2022/07/26 08:58:44;;;;;;;3.00;0.60;;;27.30;49.80;;;;;;10395649;28;20034;-58
2022/07/26 09:03:46;;;;;;;2.40;0.60;;;27.40;50.40;;;;;;10406976;28;20049;-43
2022/07/26 09:08:50;;;;;;;4.07;0.80;;;27.30;49.60;;;;;;10406731;28;20561;-40
2022/07/26 09:13:56;;;;;;;1.63;0.43;;;27.30;49.80;;;;;;10407445;28;20130;-41
2022/07/26 09:19:16;;;;;;;4.03;1.05;;;27.30;49.60;;;;;;10394841;28;20076;-42
2022/07/26 09:24:31;;;;;;;2.97;0.35;;;27.30;49.60;;;;;;10384065;28;20049;-42
2022/07/26 09:29:44;;;;;;;3.83;0.70;;;27.40;49.70;;;;;;10392895;28;20077;-41
2022/07/26 09:34:48;;;;;;;3.63;0.70;;;27.30;49.70;;;;;;10404148;28;20060;-42
2022/07/26 09:39:55;;;;;;;2.95;0.50;;;27.40;49.80;;;;;;10406948;28;20420;-40
2022/07/26 09:44:58;;;;;;;4.10;0.68;;;27.40;49.50;;;;;;10402685;28;20575;-41
2022/07/26 09:50:10;;;;;;;3.60;0.40;;;27.50;49.40;;;;;;10389783;28;20390;-41
2022/07/26 09:55:15;;;;;;;3.20;0.50;;;27.50;49.90;;;;;;10392476;28;20050;-41
2022/07/26 10:00:19;;;;;;;2.30;0.50;;;27.50;49.40;;;;;;10387031;28;20041;-39
2022/07/26 10:05:21;;;;;;;6.63;0.70;;;27.50;49.20;;;;;;10388571;28;20120;-39
2022/07/26 10:10:27;;;;;;;1.55;0.65;;;27.50;49.20;;;;;;10395420;28;20107;-40
2022/07/26 10:15:39;;;;;;;5.55;0.93;;;27.40;49.20;;;;;;10399805;28;20159;-39
2022/07/26 10:20:49;;;;;;;2.95;0.73;;;27.40;49.30;;;;;;10387144;28;20073;-41
2022/07/26 10:25:51;;;;;;;2.20;0.70;;;27.50;49.90;;;;;;10397630;28;20099;-40
2022/07/26 10:31:36;;;;;;;2.63;0.45;;;27.60;49.20;;;;;;10390549;28;20071;-39
2022/07/26 10:36:40;;;;;;;6.93;0.77;;;27.60;49.10;;;;;;10388885;28;20045;-39
2022/07/26 10:41:45;;;;;;;2.45;0.77;;;27.60;49.10;;;;;;10397063;28;20103;-39
2022/07/26 10:47:11;;;;;;;3.72;0.80;;;27.60;49.00;;;;;;10396349;28;20041;-39
2022/07/26 10:52:17;;;;;;;3.05;0.52;;;27.60;48.90;;;;;;10395739;28;20064;-39
2022/07/26 10:57:19;;;;;;;1.17;0.50;;;27.70;48.80;;;;;;10401390;28;20077;-39
2022/07/26 11:02:22;;;;;;;3.80;0.90;;;27.80;48.70;;;;;;10395176;28;20463;-40
2022/07/26 11:07:25;;;;;;;2.67;1.05;;;27.70;48.70;;;;;;10407271;28;20877;-41
2022/07/26 11:12:27;;;;;;;6.85;0.68;;;27.70;48.60;;;;;;10392843;28;20114;-41
2022/07/26 11:17:30;;;;;;;2.90;0.60;;;27.80;48.40;;;;;;10406307;28;20160;-40
2022/07/26 11:22:35;;;;;;;3.28;0.73;;;27.80;48.20;;;;;;10409024;28;20250;-39
2022/07/26 11:27:37;;;;;;;7.13;0.88;;;27.90;48.10;;;;;;10381446;28;20141;-42
2022/07/26 11:32:39;;;;;;;1.55;0.52;;;27.90;47.70;;;;;;10388222;28;20132;-42
2022/07/26 11:37:52;;;;;;;3.95;0.82;;;27.80;48.00;;;;;;10402288;28;20050;-40
2022/07/26 11:42:54;;;;;;;2.55;0.90;;;27.90;47.90;;;;;;10408068;28;20049;-42
2022/07/26 11:47:57;;;;;;;2.92;1.00;;;27.90;47.80;;;;;;10407486;28;20049;-42
2022/07/26 11:53:00;;;;;;;5.50;1.00;;;28.00;47.80;;;;;;10390140;28;20124;-40
2022/07/26 11:58:05;;;;;;;2.35;0.77;;;28.00;47.70;;;;;;10411092;28;20041;-41
2022/07/26 12:03:07;;;;;;;8.93;1.58;;;28.00;47.70;;;;;;10406685;28;20072;-42
2022/07/26 12:08:10;;;;;;;29.77;7.18;;;27.90;47.60;;;;;;10401727;28;20129;-40
2022/07/26 12:13:13;;;;;;;22.92;8.02;;;27.90;47.50;;;;;;10409671;28;20124;-40
2022/07/26 12:18:26;;;;;;;33.88;10.88;;;27.90;47.60;;;;;;10404834;28;20133;-41
2022/07/26 12:23:41;;;;;;;22.13;6.78;;;27.80;47.90;;;;;;10407727;28;20084;-42
2022/07/26 12:28:43;;;;;;;22.60;6.45;;;28.00;47.60;;;;;;10407528;28;20069;-41
2022/07/26 12:33:48;;;;;;;13.82;4.35;;;28.20;47.90;;;;;;10411692;28;20470;-41
2022/07/26 12:38:52;;;;;;;14.68;4.68;;;28.00;47.90;;;;;;10402255;28;20092;-40
2022/07/26 12:43:53;;;;;;;11.52;4.15;;;28.20;47.60;;;;;;10411083;28;20053;-41
2022/07/26 12:48:55;;;;;;;18.30;6.95;;;28.20;47.60;;;;;;10411326;28;20124;-41
2022/07/26 12:53:58;;;;;;;12.63;3.80;;;28.10;49.10;;;;;;10409507;28;20061;-43
2022/07/26 12:59:00;;;;;;;9.05;4.07;;;28.30;47.80;;;;;;10411035;28;20124;-45
2022/07/26 13:04:02;;;;;;;13.60;3.60;;;28.40;47.70;;;;;;10404078;28;20046;-41
2022/07/26 13:09:06;;;;;;;12.32;3.35;;;28.40;47.50;;;;;;10396557;28;20702;-42
2022/07/26 13:14:07;;;;;;;11.30;3.90;;;28.50;47.40;;;;;;10392120;28;20131;-44
2022/07/26 13:19:09;;;;;;;11.65;3.83;;;28.40;47.50;;;;;;10408417;28;20564;-40
2022/07/26 13:24:12;;;;;;;13.07;3.15;;;28.40;47.50;;;;;;10410262;28;20542;-42
2022/07/26 13:29:14;;;;;;;9.93;2.40;;;28.50;47.40;;;;;;10403011;28;20113;-41
2022/07/26 13:34:16;;;;;;;16.67;5.70;;;28.50;47.20;;;;;;10397697;28;20132;-42
2022/07/26 13:39:19;;;;;;;11.75;4.15;;;28.50;47.30;;;;;;10400981;28;20041;-43
2022/07/26 13:44:22;;;;;;;8.80;3.42;;;28.50;47.00;;;;;;10400506;28;20080;-41
2022/07/26 13:49:24;;;;;;;9.23;3.25;;;28.50;47.00;;;;;;10399453;28;20041;-42
2022/07/26 13:54:29;;;;;;;10.15;3.28;;;28.50;46.90;;;;;;10398361;28;20041;-42
2022/07/26 13:59:31;;;;;;;12.30;3.70;;;28.50;46.60;;;;;;10396456;28;20077;-40
2022/07/26 14:04:33;;;;;;;9.13;3.17;;;28.60;46.60;;;;;;10398929;28;20045;-42
2022/07/26 14:09:36;;;;;;;6.93;2.50;;;28.60;46.50;;;;;;10397701;28;20132;-41
2022/07/26 14:14:38;;;;;;;6.80;2.00;;;28.70;46.60;;;;;;10398524;28;20152;-43
2022/07/26 14:19:40;;;;;;;3.95;1.33;;;28.80;46.50;;;;;;10396647;28;20041;-40
2022/07/26 14:24:43;;;;;;;6.43;1.67;;;28.80;46.50;;;;;;10394769;28;20129;-41
2022/07/26 14:29:45;;;;;;;4.95;1.20;;;28.90;46.50;;;;;;10398339;28;20076;-41
2022/07/26 14:34:47;;;;;;;7.05;1.15;;;28.80;46.40;;;;;;10397105;28;20061;-44
2022/07/26 14:39:50;;;;;;;4.10;1.00;;;28.80;46.20;;;;;;10396176;28;20111;-41
2022/07/26 14:44:52;;;;;;;4.55;1.05;;;28.90;45.90;;;;;;10397388;28;20053;-46
2022/07/26 14:49:54;;;;;;;3.53;1.30;;;28.90;46.10;;;;;;10396444;28;20095;-45
2022/07/26 14:54:57;;;;;;;2.97;0.90;;;29.00;46.10;;;;;;10396128;28;20417;-42
2022/07/26 14:59:59;;;;;;;2.13;0.65;;;29.00;46.20;;;;;;10395868;28;20051;-44
2022/07/26 15:05:01;;;;;;;2.17;0.70;;;29.00;45.80;;;;;;10397982;28;20402;-40
2022/07/26 15:10:06;;;;;;;3.47;0.80;;;29.00;45.60;;;;;;10396312;28;20061;-41
2022/07/26 15:15:10;;;;;;;3.33;0.73;;;29.00;45.60;;;;;;10391181;28;20497;-41
2022/07/26 15:20:12;;;;;;;6.40;0.70;;;29.00;45.50;;;;;;10392420;28;20052;-41
2022/07/26 15:25:15;;;;;;;5.82;0.80;;;29.10;45.40;;;;;;10390727;28;20144;-43
2022/07/26 15:30:17;;;;;;;7.50;1.25;;;29.10;45.60;;;;;;10390505;28;20043;-41
2022/07/26 15:35:19;;;;;;;3.95;0.80;;;29.10;45.40;;;;;;10394621;28;20138;-42
2022/07/26 15:40:22;;;;;;;5.28;0.82;;;29.10;45.00;;;;;;10395842;28;20053;-42
2022/07/26 15:45:24;;;;;;;7.25;0.70;;;29.10;44.90;;;;;;10393343;28;20050;-43
2022/07/26 15:50:26;;;;;;;2.80;0.88;;;29.10;44.80;;;;;;10395709;28;20045;-43
2022/07/26 15:55:30;;;;;;;5.25;0.95;;;29.10;44.80;;;;;;10398692;28;20089;-43
2022/07/26 16:00:32;;;;;;;3.38;0.60;;;29.20;44.90;;;;;;10399397;28;20057;-41
2022/07/26 16:05:33;;;;;;;2.47;0.93;;;29.20;44.70;;;;;;10397815;28;20398;-44
2022/07/26 16:10:37;;;;;;;2.58;0.95;;;29.20;44.80;;;;;;10396447;28;20367;-41
2022/07/26 16:15:39;;;;;;;2.38;0.60;;;29.20;44.70;;;;;;10397885;28;20061;-38
2022/07/26 16:20:41;;;;;;;4.35;0.98;;;29.20;44.60;;;;;;10396023;28;20124;-44
2022/07/26 16:25:44;;;;;;;6.95;1.38;;;29.20;44.70;;;;;;10397564;28;20516;-42
2022/07/26 16:30:46;;;;;;;11.65;2.38;;;29.20;44.70;;;;;;10401211;28;20129;-41
2022/07/26 16:35:48;;;;;;;9.55;2.08;;;29.30;44.70;;;;;;10401348;28;20041;-43
2022/07/26 16:40:51;;;;;;;7.88;1.90;;;29.20;44.50;;;;;;10401829;28;20059;-41
2022/07/26 16:45:53;;;;;;;7.45;2.47;;;29.30;44.60;;;;;;10399764;28;20068;-47
2022/07/26 16:50:55;;;;;;;7.10;1.50;;;29.30;44.60;;;;;;10394608;28;20136;-42
2022/07/26 16:55:58;;;;;;;12.38;2.17;;;29.30;44.40;;;;;;10399089;28;20541;-43
2022/07/26 17:01:00;;;;;;;8.55;1.88;;;29.30;44.30;;;;;;10393992;28;20056;-41
2022/07/26 17:06:04;;;;;;;8.40;1.38;;;29.20;44.20;;;;;;10400314;28;20080;-39
2022/07/26 17:11:07;;;;;;;16.77;1.95;;;29.30;44.20;;;;;;10399965;28;20558;-43
2022/07/26 17:16:09;;;;;;;7.00;1.33;;;29.10;42.80;;;;;;10400571;28;20045;-44
2022/07/26 17:21:11;;;;;;;2.60;0.90;;;28.40;43.70;;;;;;10400943;28;20045;-42
2022/07/26 17:26:15;;;;;;;2.28;0.60;;;28.20;42.30;;;;;;10401090;28;20132;-47
2022/07/26 17:31:17;;;;;;;2.08;0.57;;;28.10;43.60;;;;;;10400572;28;20091;-44
2022/07/26 17:36:21;;;;;;;2.92;0.60;;;28.10;43.40;;;;;;10399719;28;20049;-48
2022/07/26 17:41:25;;;;;;;11.30;1.08;;;28.00;43.30;;;;;;10399132;28;20080;-40
2022/07/26 17:46:27;;;;;;;10.85;1.20;;;27.70;42.80;;;;;;10396592;28;20073;-47
2022/07/26 17:51:29;;;;;;;9.52;1.13;;;27.80;43.20;;;;;;10396629;28;20364;-49
2022/07/26 17:56:32;;;;;;;6.47;0.82;;;27.80;43.00;;;;;;10397764;28;20210;-44
2022/07/26 18:01:34;;;;;;;11.27;3.80;;;27.80;43.20;;;;;;10396756;28;20037;-43
2022/07/26 18:06:36;;;;;;;4.32;1.52;;;27.70;43.30;;;;;;10399019;28;20045;-44
2022/07/26 18:11:40;;;;;;;6.22;0.80;;;27.60;43.80;;;;;;10400913;28;20049;-45
2022/07/26 18:16:46;;;;;;;3.80;0.70;;;27.60;43.40;;;;;;10396088;28;20144;-38
2022/07/26 18:21:47;;;;;;;1.85;0.52;;;27.60;45.40;;;;;;10400305;28;20045;-39
2022/07/26 18:26:51;;;;;;;1.58;0.60;;;28.30;43.70;;;;;;10400015;28;20061;-39
2022/07/26 18:31:53;;;;;;;6.63;0.75;;;28.50;43.40;;;;;;10396364;28;20050;-40
2022/07/26 18:36:54;;;;;;;6.20;1.27;;;28.70;43.90;;;;;;10385436;28;20103;-39
2022/07/26 18:41:58;;;;;;;4.25;0.90;;;28.70;43.80;;;;;;10392546;28;20059;-39
2022/07/26 18:46:59;;;;;;;2.78;0.80;;;28.80;43.90;;;;;;10391833;28;20128;-38
2022/07/26 18:52:02;;;;;;;4.07;1.33;;;28.90;44.00;;;;;;10398126;28;20057;-40
2022/07/26 18:57:06;;;;;;;2.90;1.08;;;28.90;44.20;;;;;;10395480;28;20049;-40
2022/07/26 19:02:08;;;;;;;0.80;0.38;;;28.90;44.30;;;;;;10396631;28;20460;-37
2022/07/26 19:07:09;;;;;;;6.57;0.82;;;28.90;44.50;;;;;;10396318;28;20046;-41
2022/07/26 19:12:13;;;;;;;5.43;0.80;;;28.90;44.60;;;;;;10398190;28;20045;-41
2022/07/26 19:17:14;;;;;;;4.45;1.00;;;28.90;44.70;;;;;;10395725;28;20140;-39
2022/07/26 19:22:16;;;;;;;6.95;1.10;;;28.90;44.70;;;;;;10391390;28;20049;-40
2022/07/26 19:27:20;;;;;;;6.75;1.25;;;28.90;44.80;;;;;;10401969;28;20159;-39
2022/07/26 19:32:22;;;;;;;7.18;1.55;;;28.90;44.80;;;;;;10403542;28;20164;-42
2022/07/26 19:37:23;;;;;;;12.13;1.63;;;28.90;44.80;;;;;;10404393;28;20060;-39
2022/07/26 19:42:29;;;;;;;7.57;1.52;;;28.90;45.00;;;;;;10402491;28;20085;-38
2022/07/26 19:47:31;;;;;;;9.35;1.40;;;28.90;45.00;;;;;;10404294;28;20140;-40
2022/07/26 19:52:32;;;;;;;12.20;1.90;;;28.90;45.00;;;;;;10402971;28;20144;-39
2022/07/26 19:57:36;;;;;;;9.32;1.35;;;28.90;45.00;;;;;;10401614;28;20080;-39
2022/07/26 20:02:39;;;;;;;9.73;1.10;;;28.90;45.00;;;;;;10402544;28;21066;-40
2022/07/26 20:07:42;;;;;;;5.15;1.88;;;28.90;45.00;;;;;;10402024;28;20054;-41
2022/07/26 20:12:45;;;;;;;5.47;1.30;;;28.80;44.90;;;;;;10405118;28;20458;-37
2022/07/26 20:17:47;;;;;;;4.93;1.23;;;28.80;45.00;;;;;;10402949;28;20132;-39
2022/07/26 20:22:50;;;;;;;7.22;1.02;;;28.80;45.10;;;;;;10402320;28;20168;-41
2022/07/26 20:27:53;;;;;;;5.07;0.90;;;28.70;45.40;;;;;;10401102;28;20474;-39
2022/07/26 20:32:55;;;;;;;4.35;0.93;;;28.70;44.90;;;;;;10400765;28;20048;-40
2022/07/26 20:37:57;;;;;;;3.45;0.70;;;28.70;44.90;;;;;;10401742;28;20140;-40
2022/07/26 20:43:00;;;;;;;5.25;0.70;;;28.60;44.90;;;;;;10402046;28;20140;-39
2022/07/26 20:48:02;;;;;;;2.67;0.70;;;28.60;45.00;;;;;;10400207;28;20059;-38
2022/07/26 20:53:04;;;;;;;4.25;0.80;;;28.60;44.90;;;;;;10398270;28;20085;-39
2022/07/26 20:58:07;;;;;;;2.72;0.65;;;28.60;44.90;;;;;;10397767;28;20073;-41
2022/07/26 21:03:09;;;;;;;1.60;0.43;;;28.50;44.90;;;;;;10400144;28;20911;-41
2022/07/26 21:08:11;;;;;;;0.90;0.55;;;28.50;44.80;;;;;;10403694;28;20496;-39
2022/07/26 21:13:14;;;;;;;2.17;0.30;;;28.60;44.90;;;;;;10401981;28;20115;-39
2022/07/26 21:18:17;;;;;;;1.55;0.30;;;28.60;44.80;;;;;;10400627;28;20051;-40
2022/07/26 21:23:18;;;;;;;2.95;0.40;;;28.60;44.90;;;;;;10399345;28;20037;-40
2022/07/26 21:28:22;;;;;;;1.27;0.60;;;28.60;45.00;;;;;;10403709;28;20490;-40
2022/07/26 21:33:24;;;;;;;2.17;0.40;;;28.50;45.00;;;;;;10402300;28;20469;-39
2022/07/26 21:38:28;;;;;;;0.68;0.43;;;28.50;45.00;;;;;;10399580;28;20077;-41
2022/07/26 21:43:31;;;;;;;2.17;0.28;;;28.50;45.10;;;;;;10393040;28;20061;-39
2022/07/26 21:48:33;;;;;;;1.65;0.93;;;28.50;45.20;;;;;;10382822;28;20057;-39
2022/07/26 21:53:35;;;;;;;2.58;0.30;;;28.50;45.30;;;;;;10400183;28;20047;-39
2022/07/26 21:58:38;;;;;;;3.88;0.35;;;28.40;45.20;;;;;;10399425;28;20545;-39
2022/07/26 22:03:42;;;;;;;1.00;0.30;;;28.40;45.20;;;;;;10397134;28;20474;-41
2022/07/26 22:08:44;;;;;;;1.67;0.50;;;28.40;45.40;;;;;;10396092;28;20054;-38
2022/07/26 22:13:47;;;;;;;4.28;0.40;;;28.40;45.30;;;;;;10396266;28;20566;-43
2022/07/26 22:18:49;;;;;;;1.38;0.28;;;28.30;45.30;;;;;;10394465;28;20088;-39
2022/07/26 22:23:51;;;;;;;1.58;0.50;;;28.30;45.30;;;;;;10399428;28;20053;-38
2022/07/26 22:28:54;;;;;;;3.75;0.20;;;28.30;45.40;;;;;;10398179;28;20069;-41
2022/07/26 22:33:56;;;;;;;0.55;0.20;;;28.30;45.40;;;;;;10398342;28;20136;-38
2022/07/26 22:38:58;;;;;;;2.00;0.35;;;28.20;45.40;;;;;;10398882;28;20185;-38
2022/07/26 22:44:01;;;;;;;1.90;0.45;;;28.20;45.40;;;;;;10396331;28;20068;-40
2022/07/26 22:49:03;;;;;;;0.85;0.38;;;28.20;45.40;;;;;;10395296;28;20144;-38
2022/07/26 22:54:05;;;;;;;0.55;0.30;;;28.10;45.40;;;;;;10395891;28;20528;-38
2022/07/26 22:59:08;;;;;;;0.75;0.28;;;28.10;45.50;;;;;;10396607;28;20152;-41
2022/07/26 23:04:10;;;;;;;0.50;0.20;;;28.10;45.50;;;;;;10397455;28;20045;-40
2022/07/26 23:09:12;;;;;;;2.88;0.30;;;28.10;45.50;;;;;;10397505;28;20433;-39
2022/07/26 23:14:15;;;;;;;0.88;0.20;;;28.00;45.50;;;;;;10397389;28;20069;-41
2022/07/26 23:19:17;;;;;;;0.60;0.30;;;28.00;45.60;;;;;;10397505;28;20127;-40
2022/07/26 23:24:19;;;;;;;2.17;0.28;;;28.00;45.60;;;;;;10395700;28;20397;-38
2022/07/26 23:29:22;;;;;;;3.63;0.57;;;27.90;45.60;;;;;;10389151;28;20790;-40
2022/07/26 23:34:24;;;;;;;0.88;0.28;;;27.90;45.70;;;;;;10393438;28;20064;-39
2022/07/26 23:39:26;;;;;;;2.63;0.30;;;27.90;45.70;;;;;;10395738;28;20046;-40
2022/07/26 23:44:30;;;;;;;1.08;0.40;;;27.80;45.70;;;;;;10393384;28;20125;-38
2022/07/26 23:49:31;;;;;;;1.75;0.40;;;27.80;45.70;;;;;;10394949;28;20046;-39
2022/07/26 23:54:33;;;;;;;5.93;0.50;;;27.80;45.70;;;;;;10392886;28;20123;-40
2022/07/26 23:59:36;;;;;;;1.58;0.20;;;27.70;45.70;;;;;;10392263;28;20093;-38
